Time;durP1;ratioP1;P1;durP2;ratioP2;P2;SDS_P1;SDS_P2;PMS_P1;PMS_P2;Temp;Humidity;BMP_temperature;BMP_pressure;BME280_temperature;BME280_humidity;BME280_pressure;Samples;Min_cycle;Max_cycle;Signal;HPM_P1;HPM_P2
2024/03/31 00:01:38;;;;;;;;;;;;;;;;;;5041651;28;19968;-82
2024/03/31 00:04:04;;;;;;;;;;;;;;;;;;5041272;28;19921;-83
2024/03/31 00:06:31;;;;;;;;;;;;;;;;;;5036341;28;20013;-81
2024/03/31 00:08:57;;;;;;;;;;;;;;;;;;5036578;28;19921;-80
2024/03/31 00:11:24;;;;;;;;;;;;;;;;;;5036657;28;19948;-82
2024/03/31 00:13:49;;;;;;;;;;;;;;;;;;5038380;28;19925;-83
2024/03/31 00:16:16;;;;;;;;;;;;;;;;;;5034418;28;20361;-82
2024/03/31 00:18:42;;;;;;;;;;;;;;;;;;5031346;28;19920;-82
2024/03/31 00:21:09;;;;;;;;;;;;;;;;;;5032131;28;19923;-78
2024/03/31 00:23:35;;;;;;;;;;;;;;;;;;5037669;28;20028;-81
2024/03/31 00:26:02;;;;;;;;;;;;;;;;;;5038331;28;19944;-81
2024/03/31 00:28:29;;;;;;;;;;;;;;;;;;5037523;28;19928;-81
2024/03/31 00:30:55;;;;;;;;;;;;;;;;;;5038104;28;19959;-81
2024/03/31 00:33:21;;;;;;;;;;;;;;;;;;5030166;28;20380;-81
2024/03/31 00:35:48;;;;;;;;;;;;;;;;;;5038494;28;19960;-82
2024/03/31 00:38:14;;;;;;;;;;;;;;;;;;5037066;28;20129;-81
2024/03/31 00:40:41;;;;;;;;;;;;;;;;;;5038357;28;19956;-81
2024/03/31 00:43:07;;;;;;;;;;;;;;;;;;5039102;28;20373;-80
2024/03/31 00:45:34;;;;;;;;;;;;;;;;;;5030534;28;19917;-79
2024/03/31 00:48:00;;;;;;;;;;;;;;;;;;5039158;28;19972;-80
2024/03/31 00:50:27;;;;;;;;;;;;;;;;;;5029636;28;20401;-80
2024/03/31 00:52:53;;;;;;;;;;;;;;;;;;5038296;28;19921;-80
2024/03/31 00:55:20;;;;;;;;;;;;;;;;;;5029410;28;20641;-81
2024/03/31 00:57:46;;;;;;;;;;;;;;;;;;5036312;28;19928;-79
2024/03/31 01:00:13;;;;;;;;;;;;;;;;;;5027868;28;20007;-81
2024/03/31 01:02:39;;;;;;;;;;;;;;;;;;5040933;28;19944;-80
2024/03/31 01:05:06;;;;;;;;;;;;;;;;;;5041453;28;19917;-81
2024/03/31 01:07:32;;;;;;;;;;;;;;;;;;5042493;28;20290;-79
2024/03/31 01:09:59;;;;;;;;;;;;;;;;;;5033339;28;19971;-81
2024/03/31 01:12:24;;;;;;;;;;;;;;;;;;5040664;28;19968;-82
2024/03/31 01:14:51;;;;;;;;;;;;;;;;;;5040076;28;19924;-81
2024/03/31 01:17:17;;;;;;;;;;;;;;;;;;5028207;28;19995;-80
2024/03/31 01:19:44;;;;;;;;;;;;;;;;;;5028530;28;20374;-81
2024/03/31 01:22:10;;;;;;;;;;;;;;;;;;5032704;28;19921;-82
2024/03/31 01:24:37;;;;;;;;;;;;;;;;;;5042135;28;20001;-82
2024/03/31 01:27:03;;;;;;;;;;;;;;;;;;5040031;28;19921;-80
2024/03/31 01:29:31;;;;;;;;;;;;;;;;;;5039985;28;19921;-82
2024/03/31 01:31:57;;;;;;;;;;;;;;;;;;5036075;28;20079;-79
2024/03/31 01:34:24;;;;;;;;;;;;;;;;;;5036987;28;19963;-82
2024/03/31 01:36:50;;;;;;;;;;;;;;;;;;5040114;28;20039;-80
2024/03/31 01:39:18;;;;;;;;;;;;;;;;;;5024438;28;19924;-80
2024/03/31 01:41:44;;;;;;;;;;;;;;;;;;5040883;28;19921;-81
2024/03/31 01:44:11;;;;;;;;;;;;;;;;;;5040884;28;19964;-80
2024/03/31 01:46:37;;;;;;;;;;;;;;;;;;5044281;28;19961;-81
2024/03/31 01:49:04;;;;;;;;;;;;;;;;;;5043351;28;19917;-81
2024/03/31 01:51:30;;;;;;;;;;;;;;;;;;5043795;28;20004;-82
2024/03/31 01:53:57;;;;;;;;;;;;;;;;;;5044704;28;19955;-79
2024/03/31 01:56:23;;;;;;;;;;;;;;;;;;5044295;28;19921;-81
2024/03/31 01:58:50;;;;;;;;;;;;;;;;;;5035345;28;19959;-81
2024/03/31 02:01:16;;;;;;;;;;;;;;;;;;5044088;28;20016;-82
2024/03/31 02:03:43;;;;;;;;;;;;;;;;;;5034773;28;19972;-82
2024/03/31 02:06:09;;;;;;;;;;;;;;;;;;5043201;28;19921;-78
2024/03/31 02:08:36;;;;;;;;;;;;;;;;;;5033516;28;20008;-80
2024/03/31 02:11:02;;;;;;;;;;;;;;;;;;5029209;28;20015;-81
2024/03/31 02:13:28;;;;;;;;;;;;;;;;;;5042655;28;19971;-82
2024/03/31 02:15:54;;;;;;;;;;;;;;;;;;5043566;28;20019;-81
2024/03/31 02:18:21;;;;;;;;;;;;;;;;;;5043115;28;19964;-78
2024/03/31 02:20:47;;;;;;;;;;;;;;;;;;5035643;28;19972;-82
2024/03/31 02:23:14;;;;;;;;;;;;;;;;;;5034038;28;19924;-83
2024/03/31 02:25:40;;;;;;;;;;;;;;;;;;5042707;28;20008;-81
2024/03/31 02:28:08;;;;;;;;;;;;;;;;;;5037237;28;19917;-81
2024/03/31 02:30:34;;;;;;;;;;;;;;;;;;5040826;28;20004;-78
2024/03/31 02:33:01;;;;;;;;;;;;;;;;;;5042406;28;19968;-82
2024/03/31 02:35:27;;;;;;;;;;;;;;;;;;5040796;28;20024;-79
2024/03/31 02:37:53;;;;;;;;;;;;;;;;;;5033120;28;19960;-81
2024/03/31 02:40:19;;;;;;;;;;;;;;;;;;5043330;28;19972;-80
2024/03/31 02:42:46;;;;;;;;;;;;;;;;;;5043597;28;19924;-78
2024/03/31 02:45:12;;;;;;;;;;;;;;;;;;5043723;28;20289;-81
2024/03/31 02:47:39;;;;;;;;;;;;;;;;;;5043019;28;19923;-80
2024/03/31 02:50:05;;;;;;;;;;;;;;;;;;5042919;28;19924;-85
2024/03/31 02:52:32;;;;;;;;;;;;;;;;;;5042093;28;19967;-82
2024/03/31 02:54:59;;;;;;;;;;;;;;;;;;5042895;28;20301;-81
2024/03/31 02:57:26;;;;;;;;;;;;;;;;;;5034380;28;19921;-81
2024/03/31 02:59:52;;;;;;;;;;;;;;;;;;5039071;28;20025;-79
2024/03/31 03:02:19;;;;;;;;;;;;;;;;;;5039208;28;19955;-80
2024/03/31 03:04:45;;;;;;;;;;;;;;;;;;5042815;28;20360;-79
2024/03/31 03:07:12;;;;;;;;;;;;;;;;;;5041746;28;19952;-81
2024/03/31 03:09:38;;;;;;;;;;;;;;;;;;5035972;28;19921;-80
2024/03/31 03:12:05;;;;;;;;;;;;;;;;;;5036000;28;20340;-80
2024/03/31 03:14:31;;;;;;;;;;;;;;;;;;5041025;28;19921;-81
2024/03/31 03:16:58;;;;;;;;;;;;;;;;;;5031936;28;19925;-79
2024/03/31 03:19:24;;;;;;;;;;;;;;;;;;5040242;28;20015;-80
2024/03/31 03:21:51;;;;;;;;;;;;;;;;;;5035046;28;19956;-81
2024/03/31 03:24:17;;;;;;;;;;;;;;;;;;5036612;28;19971;-82
2024/03/31 03:26:44;;;;;;;;;;;;;;;;;;5040724;28;19917;-80
2024/03/31 03:29:10;;;;;;;;;;;;;;;;;;5038878;28;19988;-80
2024/03/31 03:31:37;;;;;;;;;;;;;;;;;;5040790;28;19952;-81
2024/03/31 03:34:03;;;;;;;;;;;;;;;;;;5041898;28;20016;-81
2024/03/31 03:36:30;;;;;;;;;;;;;;;;;;5041203;28;19960;-78
2024/03/31 03:38:57;;;;;;;;;;;;;;;;;;5041078;28;20377;-81
2024/03/31 03:41:24;;;;;;;;;;;;;;;;;;5041233;28;20469;-80
2024/03/31 03:43:51;;;;;;;;;;;;;;;;;;5033316;28;20007;-81
2024/03/31 03:46:17;;;;;;;;;;;;;;;;;;5040809;28;19995;-81
2024/03/31 03:48:44;;;;;;;;;;;;;;;;;;5040509;28;20284;-82
2024/03/31 03:51:10;;;;;;;;;;;;;;;;;;5040546;28;19932;-80
2024/03/31 03:53:36;;;;;;;;;;;;;;;;;;5032909;28;20019;-80
2024/03/31 03:56:02;;;;;;;;;;;;;;;;;;5034044;28;19951;-81
2024/03/31 03:58:30;;;;;;;;;;;;;;;;;;5040367;28;19925;-81
2024/03/31 04:00:57;;;;;;;;;;;;;;;;;;5033942;28;19928;-81
2024/03/31 04:03:23;;;;;;;;;;;;;;;;;;5040434;28;19921;-80
2024/03/31 04:05:50;;;;;;;;;;;;;;;;;;5034383;28;19921;-80
2024/03/31 04:08:16;;;;;;;;;;;;;;;;;;5040716;28;19921;-81
2024/03/31 04:10:43;;;;;;;;;;;;;;;;;;5041086;28;19975;-82
2024/03/31 04:13:09;;;;;;;;;;;;;;;;;;5038752;28;20012;-79
2024/03/31 04:15:36;;;;;;;;;;;;;;;;;;5039946;28;19968;-81
2024/03/31 04:18:02;;;;;;;;;;;;;;;;;;5039000;28;19928;-80
2024/03/31 04:20:29;;;;;;;;;;;;;;;;;;5041260;28;19953;-82
2024/03/31 04:22:55;;;;;;;;;;;;;;;;;;5041334;28;20015;-81
2024/03/31 04:25:22;;;;;;;;;;;;;;;;;;5043121;28;19917;-80
2024/03/31 04:27:51;;;;;;;;;;;;;;;;;;5041520;28;20016;-81
2024/03/31 04:30:18;;;;;;;;;;;;;;;;;;5040244;28;19917;-81
2024/03/31 04:32:44;;;;;;;;;;;;;;;;;;5030425;28;20019;-81
2024/03/31 04:35:11;;;;;;;;;;;;;;;;;;5029177;28;20361;-80
2024/03/31 04:37:37;;;;;;;;;;;;;;;;;;5037051;28;20015;-81
2024/03/31 04:40:04;;;;;;;;;;;;;;;;;;5033141;28;20369;-81
2024/03/31 04:42:30;;;;;;;;;;;;;;;;;;5038806;28;20007;-81
2024/03/31 04:44:57;;;;;;;;;;;;;;;;;;5041589;28;19940;-82
2024/03/31 04:47:23;;;;;;;;;;;;;;;;;;5040416;28;19921;-83
2024/03/31 04:49:49;;;;;;;;;;;;;;;;;;5041264;28;20365;-81
2024/03/31 04:52:15;;;;;;;;;;;;;;;;;;5039720;28;20013;-82
2024/03/31 04:54:42;;;;;;;;;;;;;;;;;;5040201;28;19964;-83
2024/03/31 04:57:08;;;;;;;;;;;;;;;;;;5037705;28;19927;-85
2024/03/31 04:59:35;;;;;;;;;;;;;;;;;;5039518;28;19956;-85
2024/03/31 05:02:01;;;;;;;;;;;;;;;;;;5039669;28;20011;-86
2024/03/31 05:04:28;;;;;;;;;;;;;;;;;;5040944;28;19932;-86
2024/03/31 05:06:54;;;;;;;;;;;;;;;;;;5040016;28;19928;-85
2024/03/31 05:09:21;;;;;;;;;;;;;;;;;;5041197;28;19960;-85
2024/03/31 05:11:47;;;;;;;;;;;;;;;;;;5040264;28;20385;-86
2024/03/31 05:14:14;;;;;;;;;;;;;;;;;;5040633;28;19924;-85
2024/03/31 05:16:40;;;;;;;;;;;;;;;;;;5032536;28;20350;-83
2024/03/31 05:19:07;;;;;;;;;;;;;;;;;;5041121;28;19976;-84
2024/03/31 05:21:33;;;;;;;;;;;;;;;;;;5043137;28;20342;-83
2024/03/31 05:24:00;;;;;;;;;;;;;;;;;;5043130;28;19963;-84
2024/03/31 05:26:26;;;;;;;;;;;;;;;;;;5042774;28;19927;-85
2024/03/31 05:28:52;;;;;;;;;;;;;;;;;;5042661;28;19956;-84
2024/03/31 05:31:18;;;;;;;;;;;;;;;;;;5043199;28;19980;-84
2024/03/31 05:33:45;;;;;;;;;;;;;;;;;;5043867;28;19959;-85
2024/03/31 05:36:11;;;;;;;;;;;;;;;;;;5043422;28;19925;-83
2024/03/31 05:38:38;;;;;;;;;;;;;;;;;;5041622;28;19952;-86
2024/03/31 05:41:04;;;;;;;;;;;;;;;;;;5043711;28;20362;-86
2024/03/31 05:43:31;;;;;;;;;;;;;;;;;;5043471;28;19975;-86
2024/03/31 05:45:57;;;;;;;;;;;;;;;;;;5041983;28;19978;-85
2024/03/31 05:48:24;;;;;;;;;;;;;;;;;;5041791;28;20043;-86
2024/03/31 05:50:50;;;;;;;;;;;;;;;;;;5038153;28;20440;-87
2024/03/31 05:53:17;;;;;;;;;;;;;;;;;;5038748;28;19952;-87
2024/03/31 05:55:43;;;;;;;;;;;;;;;;;;5037861;28;19984;-86
2024/03/31 05:58:10;;;;;;;;;;;;;;;;;;5022270;28;19965;-85
2024/03/31 06:00:37;;;;;;;;;;;;;;;;;;5027592;28;19967;-87
2024/03/31 06:03:04;;;;;;;;;;;;;;;;;;5037545;28;20452;-86
2024/03/31 06:05:30;;;;;;;;;;;;;;;;;;5030684;28;19938;-86
2024/03/31 06:07:57;;;;;;;;;;;;;;;;;;5029102;28;20082;-85
2024/03/31 06:10:23;;;;;;;;;;;;;;;;;;5031568;28;19969;-86
2024/03/31 06:12:50;;;;;;;;;;;;;;;;;;5028805;28;20473;-86
2024/03/31 06:15:16;;;;;;;;;;;;;;;;;;5027775;28;20095;-87
2024/03/31 06:17:43;;;;;;;;;;;;;;;;;;5025080;28;20429;-87
2024/03/31 06:20:09;;;;;;;;;;;;;;;;;;5031424;28;19975;-85
2024/03/31 06:22:36;;;;;;;;;;;;;;;;;;5028984;28;19927;-86
2024/03/31 06:25:02;;;;;;;;;;;;;;;;;;5031404;28;20011;-86
2024/03/31 06:27:29;;;;;;;;;;;;;;;;;;5033989;28;19956;-86
2024/03/31 06:29:55;;;;;;;;;;;;;;;;;;5032624;28;19952;-86
2024/03/31 06:32:22;;;;;;;;;;;;;;;;;;5033782;28;20530;-85
2024/03/31 06:34:48;;;;;;;;;;;;;;;;;;5036865;28;20023;-87
2024/03/31 06:37:17;;;;;;;;;;;;;;;;;;5034266;28;20466;-86
2024/03/31 06:39:43;;;;;;;;;;;;;;;;;;5044446;28;19972;-87
2024/03/31 06:42:10;;;;;;;;;;;;;;;;;;5050499;28;19959;-85
2024/03/31 06:44:36;;;;;;;;;;;;;;;;;;5047739;28;20008;-85
2024/03/31 06:47:03;;;;;;;;;;;;;;;;;;5049271;28;19976;-84
2024/03/31 06:49:29;;;;;;;;;;;;;;;;;;5050787;28;19987;-85
2024/03/31 06:51:57;;;;;;;;;;;;;;;;;;5049356;28;19959;-85
2024/03/31 06:54:23;;;;;;;;;;;;;;;;;;5048573;28;19981;-83
2024/03/31 06:56:50;;;;;;;;;;;;;;;;;;5042168;28;19935;-85
2024/03/31 06:59:16;;;;;;;;;;;;;;;;;;5030572;28;20023;-86
2024/03/31 07:01:43;;;;;;;;;;;;;;;;;;5027880;28;19972;-84
2024/03/31 07:04:09;;;;;;;;;;;;;;;;;;5029307;28;20129;-84
2024/03/31 07:06:36;;;;;;;;;;;;;;;;;;5038446;28;20017;-84
2024/03/31 07:09:02;;;;;;;;;;;;;;;;;;5025807;28;19988;-86
2024/03/31 07:11:29;;;;;;;;;;;;;;;;;;5032355;28;20022;-86
2024/03/31 07:13:55;;;;;;;;;;;;;;;;;;5033080;28;20007;-86
2024/03/31 07:16:22;;;;;;;;;;;;;;;;;;5028213;28;19971;-82
2024/03/31 07:18:48;;;;;;;;;;;;;;;;;;5034475;28;19921;-87
2024/03/31 07:21:14;;;;;;;;;;;;;;;;;;5037443;28;19927;-86
2024/03/31 07:23:40;;;;;;;;;;;;;;;;;;5037768;28;20079;-85
2024/03/31 07:26:07;;;;;;;;;;;;;;;;;;5034268;28;20003;-85
2024/03/31 07:28:33;;;;;;;;;;;;;;;;;;5030920;28;20039;-85
2024/03/31 07:31:00;;;;;;;;;;;;;;;;;;5040476;28;19972;-85
2024/03/31 07:33:26;;;;;;;;;;;;;;;;;;5039498;28;20072;-87
2024/03/31 07:35:53;;;;;;;;;;;;;;;;;;5045951;28;19965;-84
2024/03/31 07:38:19;;;;;;;;;;;;;;;;;;5048154;28;20023;-85
2024/03/31 07:40:46;;;;;;;;;;;;;;;;;;5048457;28;19964;-84
2024/03/31 07:43:12;;;;;;;;;;;;;;;;;;5044213;28;20004;-86
2024/03/31 07:45:39;;;;;;;;;;;;;;;;;;5033630;28;19965;-87
2024/03/31 07:48:05;;;;;;;;;;;;;;;;;;5035506;28;19989;-86
2024/03/31 07:50:32;;;;;;;;;;;;;;;;;;5038352;28;19999;-86
2024/03/31 07:52:58;;;;;;;;;;;;;;;;;;5035681;28;19985;-86
2024/03/31 07:55:25;;;;;;;;;;;;;;;;;;5041856;28;20015;-84
2024/03/31 07:57:51;;;;;;;;;;;;;;;;;;5040582;28;19984;-84
2024/03/31 08:00:18;;;;;;;;;;;;;;;;;;5042308;28;20031;-85
2024/03/31 08:02:44;;;;;;;;;;;;;;;;;;5034084;28;19977;-82
2024/03/31 08:05:12;;;;;;;;;;;;;;;;;;5043016;28;20055;-84
2024/03/31 08:07:37;;;;;;;;;;;;;;;;;;5038644;28;19973;-85
2024/03/31 08:10:04;;;;;;;;;;;;;;;;;;5034109;28;19974;-87
2024/03/31 08:12:31;;;;;;;;;;;;;;;;;;5029735;28;20322;-87
2024/03/31 08:14:57;;;;;;;;;;;;;;;;;;5036171;28;20021;-88
2024/03/31 08:17:24;;;;;;;;;;;;;;;;;;5037056;28;20465;-87
2024/03/31 08:19:50;;;;;;;;;;;;;;;;;;5032910;28;20087;-87
2024/03/31 08:22:17;;;;;;;;;;;;;;;;;;5036933;28;20035;-87
2024/03/31 08:24:46;;;;;;;;;;;;;;;;;;5036959;28;20465;-87
2024/03/31 08:27:13;;;;;;;;;;;;;;;;;;5034482;28;19973;-86
2024/03/31 08:29:40;;;;;;;;;;;;;;;;;;5037885;28;20079;-86
2024/03/31 08:32:07;;;;;;;;;;;;;;;;;;5041816;28;20044;-86
2024/03/31 08:34:33;;;;;;;;;;;;;;;;;;5044299;28;20059;-83
2024/03/31 08:37:00;;;;;;;;;;;;;;;;;;5042527;28;19969;-85
2024/03/31 08:39:26;;;;;;;;;;;;;;;;;;5045296;28;20012;-85
2024/03/31 08:41:53;;;;;;;;;;;;;;;;;;5042361;28;20031;-84
2024/03/31 08:44:19;;;;;;;;;;;;;;;;;;5046475;28;20540;-81
2024/03/31 08:46:46;;;;;;;;;;;;;;;;;;5043706;28;19976;-83
2024/03/31 08:49:12;;;;;;;;;;;;;;;;;;5045383;28;19992;-83
2024/03/31 08:51:39;;;;;;;;;;;;;;;;;;5046260;28;20019;-83
2024/03/31 08:54:05;;;;;;;;;;;;;;;;;;5045470;28;19984;-85
2024/03/31 08:56:32;;;;;;;;;;;;;;;;;;5050054;28;19977;-83
2024/03/31 08:59:00;;;;;;;;;;;;;;;;;;5046885;28;20035;-80
2024/03/31 09:01:27;;;;;;;;;;;;;;;;;;5044976;28;19972;-82
2024/03/31 09:03:53;;;;;;;;;;;;;;;;;;5046801;28;20064;-85
2024/03/31 09:06:20;;;;;;;;;;;;;;;;;;5048553;28;19977;-84
2024/03/31 09:08:46;;;;;;;;;;;;;;;;;;5048270;28;20039;-80
2024/03/31 09:11:13;;;;;;;;;;;;;;;;;;5048144;28;20425;-83
2024/03/31 09:13:39;;;;;;;;;;;;;;;;;;5040572;28;20009;-84
2024/03/31 09:16:06;;;;;;;;;;;;;;;;;;5049679;28;19972;-82
2024/03/31 09:18:32;;;;;;;;;;;;;;;;;;5047575;28;20024;-80
2024/03/31 09:20:59;;;;;;;;;;;;;;;;;;5048779;28;19983;-81
2024/03/31 09:23:25;;;;;;;;;;;;;;;;;;5050099;28;20011;-80
2024/03/31 09:25:52;;;;;;;;;;;;;;;;;;5050054;28;19973;-79
2024/03/31 09:28:18;;;;;;;;;;;;;;;;;;5048744;28;20087;-82
2024/03/31 09:30:45;;;;;;;;;;;;;;;;;;5049293;28;19992;-80
2024/03/31 09:33:11;;;;;;;;;;;;;;;;;;5049948;28;20012;-81
2024/03/31 09:35:38;;;;;;;;;;;;;;;;;;5049750;28;20052;-84
2024/03/31 09:38:03;;;;;;;;;;;;;;;;;;5049705;28;20043;-82
2024/03/31 09:40:30;;;;;;;;;;;;;;;;;;5050676;28;19972;-82
2024/03/31 09:42:56;;;;;;;;;;;;;;;;;;5050362;28;20008;-81
2024/03/31 09:45:24;;;;;;;;;;;;;;;;;;5051166;28;19973;-83
2024/03/31 09:47:50;;;;;;;;;;;;;;;;;;5047670;28;20000;-83
2024/03/31 09:50:17;;;;;;;;;;;;;;;;;;5051911;28;20051;-83
2024/03/31 09:52:43;;;;;;;;;;;;;;;;;;5050959;28;20056;-84
2024/03/31 09:55:10;;;;;;;;;;;;;;;;;;5050610;28;20061;-83
2024/03/31 09:57:35;;;;;;;;;;;;;;;;;;5041055;28;20056;-82
2024/03/31 10:00:03;;;;;;;;;;;;;;;;;;5047127;28;19975;-81
2024/03/31 10:02:29;;;;;;;;;;;;;;;;;;5048424;28;19977;-83
2024/03/31 10:04:56;;;;;;;;;;;;;;;;;;5042763;28;19965;-83
2024/03/31 10:07:22;;;;;;;;;;;;;;;;;;5045367;28;20015;-80
2024/03/31 10:09:49;;;;;;;;;;;;;;;;;;5047642;28;19981;-82
2024/03/31 10:12:15;;;;;;;;;;;;;;;;;;5040557;28;20012;-82
2024/03/31 10:14:41;;;;;;;;;;;;;;;;;;5048917;28;19973;-82
2024/03/31 10:17:07;;;;;;;;;;;;;;;;;;5049825;28;20063;-81
2024/03/31 10:19:34;;;;;;;;;;;;;;;;;;5046981;28;19988;-82
2024/03/31 10:22:00;;;;;;;;;;;;;;;;;;5051644;28;20036;-81
2024/03/31 10:24:27;;;;;;;;;;;;;;;;;;5043393;28;19976;-82
2024/03/31 10:26:53;;;;;;;;;;;;;;;;;;5049156;28;20260;-81
2024/03/31 10:29:20;;;;;;;;;;;;;;;;;;5043947;28;19992;-81
2024/03/31 10:31:46;;;;;;;;;;;;;;;;;;5050598;28;19977;-82
2024/03/31 10:34:13;;;;;;;;;;;;;;;;;;5047243;28;19969;-80
2024/03/31 10:36:39;;;;;;;;;;;;;;;;;;5041834;28;19996;-82
2024/03/31 10:39:06;;;;;;;;;;;;;;;;;;5048913;28;20011;-82
2024/03/31 10:41:32;;;;;;;;;;;;;;;;;;5042437;28;19969;-81
2024/03/31 10:43:59;;;;;;;;;;;;;;;;;;5049379;28;19992;-81
2024/03/31 10:46:25;;;;;;;;;;;;;;;;;;5048361;28;20008;-82
2024/03/31 10:48:52;;;;;;;;;;;;;;;;;;5048910;28;19993;-80
2024/03/31 10:51:18;;;;;;;;;;;;;;;;;;5039723;28;20439;-80
2024/03/31 10:53:45;;;;;;;;;;;;;;;;;;5043592;28;19965;-80
2024/03/31 10:56:11;;;;;;;;;;;;;;;;;;5039172;28;20400;-80
2024/03/31 10:58:38;;;;;;;;;;;;;;;;;;5039978;28;19962;-79
2024/03/31 11:01:04;;;;;;;;;;;;;;;;;;5041923;28;19957;-81
2024/03/31 11:03:31;;;;;;;;;;;;;;;;;;5035948;28;19929;-81
2024/03/31 11:05:57;;;;;;;;;;;;;;;;;;5046160;28;19971;-81
2024/03/31 11:08:24;;;;;;;;;;;;;;;;;;5043130;28;19925;-80
2024/03/31 11:10:50;;;;;;;;;;;;;;;;;;5040430;28;19952;-80
2024/03/31 11:13:17;;;;;;;;;;;;;;;;;;5031771;28;19925;-80
2024/03/31 11:15:44;;;;;;;;;;;;;;;;;;5030441;28;19929;-80
2024/03/31 11:18:10;;;;;;;;;;;;;;;;;;5033584;28;20011;-80
2024/03/31 11:20:36;;;;;;;;;;;;;;;;;;5039538;28;19952;-78
2024/03/31 11:23:02;;;;;;;;;;;;;;;;;;5038627;28;20378;-80
2024/03/31 11:25:32;;;;;;;;;;;;;;;;;;5039838;28;19968;-80
2024/03/31 11:27:58;;;;;;;;;;;;;;;;;;5032566;28;19921;-82
2024/03/31 11:30:25;;;;;;;;;;;;;;;;;;5039640;28;19955;-81
2024/03/31 11:32:51;;;;;;;;;;;;;;;;;;5042719;28;19976;-80
2024/03/31 11:35:18;;;;;;;;;;;;;;;;;;5040915;28;19920;-81
2024/03/31 11:37:44;;;;;;;;;;;;;;;;;;5034489;28;19968;-83
2024/03/31 11:40:11;;;;;;;;;;;;;;;;;;5041947;28;19917;-82
2024/03/31 11:42:37;;;;;;;;;;;;;;;;;;5046624;28;19944;-83
2024/03/31 11:45:04;;;;;;;;;;;;;;;;;;5049427;28;19921;-83
2024/03/31 11:47:30;;;;;;;;;;;;;;;;;;5047493;28;19947;-84
2024/03/31 11:49:57;;;;;;;;;;;;;;;;;;5042443;28;19921;-81
2024/03/31 11:52:23;;;;;;;;;;;;;;;;;;5039237;28;19929;-81
2024/03/31 11:54:50;;;;;;;;;;;;;;;;;;5042990;28;19917;-82
2024/03/31 11:57:16;;;;;;;;;;;;;;;;;;5047160;28;19947;-82
2024/03/31 11:59:43;;;;;;;;;;;;;;;;;;5045418;28;20345;-80
2024/03/31 12:02:09;;;;;;;;;;;;;;;;;;5029457;28;19963;-82
2024/03/31 12:04:36;;;;;;;;;;;;;;;;;;5047533;28;19917;-82
2024/03/31 12:07:02;;;;;;;;;;;;;;;;;;5046170;28;19968;-80
2024/03/31 12:09:30;;;;;;;;;;;;;;;;;;5045410;28;19940;-80
2024/03/31 12:11:56;;;;;;;;;;;;;;;;;;5041906;28;19932;-78
2024/03/31 12:14:23;;;;;;;;;;;;;;;;;;5031465;28;19917;-77
2024/03/31 12:16:49;;;;;;;;;;;;;;;;;;5027726;28;20316;-79
2024/03/31 12:19:16;;;;;;;;;;;;;;;;;;5024068;28;20411;-78
2024/03/31 12:21:42;;;;;;;;;;;;;;;;;;5027158;28;20020;-81
2024/03/31 12:24:09;;;;;;;;;;;;;;;;;;5031743;28;19974;-78
2024/03/31 12:26:35;;;;;;;;;;;;;;;;;;5025394;28;20304;-78
2024/03/31 12:29:03;;;;;;;;;;;;;;;;;;5025867;28;20004;-78
2024/03/31 12:31:29;;;;;;;;;;;;;;;;;;5030404;28;19928;-80
2024/03/31 12:33:56;;;;;;;;;;;;;;;;;;5031067;28;19921;-78
2024/03/31 12:36:22;;;;;;;;;;;;;;;;;;5027667;28;20020;-79
2024/03/31 12:38:49;;;;;;;;;;;;;;;;;;5028915;28;20351;-78
2024/03/31 12:41:15;;;;;;;;;;;;;;;;;;5028035;28;20008;-78
2024/03/31 12:43:45;;;;;;;;;;;;;;;;;;5028910;28;19964;-79
2024/03/31 12:46:11;;;;;;;;;;;;;;;;;;5028135;28;19928;-78
2024/03/31 12:48:38;;;;;;;;;;;;;;;;;;5026498;28;19917;-75
2024/03/31 12:51:04;;;;;;;;;;;;;;;;;;5029749;28;19964;-77
2024/03/31 12:53:31;;;;;;;;;;;;;;;;;;5025180;28;20301;-79
2024/03/31 12:55:57;;;;;;;;;;;;;;;;;;5026450;28;19928;-77
2024/03/31 12:58:24;;;;;;;;;;;;;;;;;;5028534;28;19921;-80
2024/03/31 13:00:53;;;;;;;;;;;;;;;;;;5028268;28;19984;-79
2024/03/31 13:03:20;;;;;;;;;;;;;;;;;;5029420;28;19924;-77
2024/03/31 13:05:46;;;;;;;;;;;;;;;;;;5030258;28;19928;-78
2024/03/31 13:08:13;;;;;;;;;;;;;;;;;;5027693;28;19952;-79
2024/03/31 13:10:39;;;;;;;;;;;;;;;;;;5026219;28;19968;-80
2024/03/31 13:13:08;;;;;;;;;;;;;;;;;;5034256;28;19924;-82
2024/03/31 13:15:34;;;;;;;;;;;;;;;;;;5033771;28;19944;-81
2024/03/31 13:18:01;;;;;;;;;;;;;;;;;;5040995;28;19940;-80
2024/03/31 13:20:27;;;;;;;;;;;;;;;;;;5029179;28;20000;-80
2024/03/31 13:22:54;;;;;;;;;;;;;;;;;;5040365;28;19924;-80
2024/03/31 13:25:20;;;;;;;;;;;;;;;;;;5041681;28;19921;-79
2024/03/31 13:27:47;;;;;;;;;;;;;;;;;;5040311;28;19923;-79
2024/03/31 13:30:12;;;;;;;;;;;;;;;;;;5035678;28;19953;-79
2024/03/31 13:32:39;;;;;;;;;;;;;;;;;;5037807;28;19924;-79
2024/03/31 13:35:05;;;;;;;;;;;;;;;;;;5038814;28;19921;-80
2024/03/31 13:37:32;;;;;;;;;;;;;;;;;;5037993;28;19952;-79
2024/03/31 13:39:58;;;;;;;;;;;;;;;;;;5033635;28;19921;-80
2024/03/31 13:42:25;;;;;;;;;;;;;;;;;;5043174;28;19964;-80
2024/03/31 13:44:51;;;;;;;;;;;;;;;;;;5034424;28;20020;-80
2024/03/31 13:47:18;;;;;;;;;;;;;;;;;;5041152;28;19948;-80
2024/03/31 13:49:44;;;;;;;;;;;;;;;;;;5039177;28;20032;-80
2024/03/31 13:52:11;;;;;;;;;;;;;;;;;;5037197;28;19921;-79
2024/03/31 13:54:37;;;;;;;;;;;;;;;;;;5040456;28;19928;-79
2024/03/31 13:57:04;;;;;;;;;;;;;;;;;;5033818;28;19917;-78
2024/03/31 13:59:30;;;;;;;;;;;;;;;;;;5036704;28;20012;-79
2024/03/31 14:01:57;;;;;;;;;;;;;;;;;;5033885;28;20025;-78
2024/03/31 14:04:23;;;;;;;;;;;;;;;;;;5042198;28;20024;-80
2024/03/31 14:06:50;;;;;;;;;;;;;;;;;;5043556;28;20412;-81
2024/03/31 14:09:16;;;;;;;;;;;;;;;;;;5043655;28;19932;-80
2024/03/31 14:11:43;;;;;;;;;;;;;;;;;;5046467;28;19983;-81
2024/03/31 14:14:09;;;;;;;;;;;;;;;;;;5038590;28;19980;-79
2024/03/31 14:16:36;;;;;;;;;;;;;;;;;;5038846;28;20341;-80
2024/03/31 14:19:02;;;;;;;;;;;;;;;;;;5037782;28;19927;-78
2024/03/31 14:21:29;;;;;;;;;;;;;;;;;;5041794;28;20008;-80
2024/03/31 14:23:55;;;;;;;;;;;;;;;;;;5044637;28;20020;-82
2024/03/31 14:26:22;;;;;;;;;;;;;;;;;;5045843;28;20384;-79
2024/03/31 14:28:48;;;;;;;;;;;;;;;;;;5036619;28;19957;-80
2024/03/31 14:31:15;;;;;;;;;;;;;;;;;;5046711;28;19958;-81
2024/03/31 14:33:41;;;;;;;;;;;;;;;;;;5046280;28;19931;-80
2024/03/31 14:36:08;;;;;;;;;;;;;;;;;;5045184;28;19921;-79
2024/03/31 14:38:34;;;;;;;;;;;;;;;;;;5033922;28;19928;-78
2024/03/31 14:41:01;;;;;;;;;;;;;;;;;;5039538;28;19921;-80
2024/03/31 14:43:27;;;;;;;;;;;;;;;;;;5044251;28;19921;-81
2024/03/31 14:45:54;;;;;;;;;;;;;;;;;;5045507;28;19917;-79
2024/03/31 14:48:20;;;;;;;;;;;;;;;;;;5043480;28;19921;-79
2024/03/31 14:50:47;;;;;;;;;;;;;;;;;;5042671;28;19918;-82
2024/03/31 14:53:13;;;;;;;;;;;;;;;;;;5039319;28;19984;-80
2024/03/31 14:55:40;;;;;;;;;;;;;;;;;;5045227;28;19917;-79
2024/03/31 14:58:09;;;;;;;;;;;;;;;;;;5038828;28;19928;-79
2024/03/31 15:00:36;;;;;;;;;;;;;;;;;;5040394;28;20394;-80
2024/03/31 15:03:02;;;;;;;;;;;;;;;;;;5038091;28;19956;-79
2024/03/31 15:05:29;;;;;;;;;;;;;;;;;;5038304;28;19917;-79
2024/03/31 15:07:54;;;;;;;;;;;;;;;;;;5039238;28;19921;-81
2024/03/31 15:10:21;;;;;;;;;;;;;;;;;;5040556;28;19971;-78
2024/03/31 15:12:47;;;;;;;;;;;;;;;;;;5041904;28;20408;-81
2024/03/31 15:15:14;;;;;;;;;;;;;;;;;;5035619;28;19964;-82
2024/03/31 15:17:40;;;;;;;;;;;;;;;;;;5036110;28;20352;-78
2024/03/31 15:20:08;;;;;;;;;;;;;;;;;;5032147;28;19917;-80
2024/03/31 15:22:34;;;;;;;;;;;;;;;;;;5032010;28;20342;-80
2024/03/31 15:25:01;;;;;;;;;;;;;;;;;;5038593;28;19924;-80
2024/03/31 15:27:27;;;;;;;;;;;;;;;;;;5029729;28;20012;-78
2024/03/31 15:29:54;;;;;;;;;;;;;;;;;;5034570;28;20416;-80
2024/03/31 15:32:20;;;;;;;;;;;;;;;;;;5034149;28;19921;-79
2024/03/31 15:34:48;;;;;;;11.30;1.37;;;;;;;;;;5036396;28;20964;-81
2024/03/31 15:37:14;;;;;;;11.20;1.33;;;;;;;;;;5029130;28;20798;-81
2024/03/31 15:39:41;;;;;;;14.43;1.97;;;;;;;;;;5039249;28;21004;-80
2024/03/31 15:42:08;;;;;;;14.03;2.10;;;;;;;;;;5036621;28;20525;-79
2024/03/31 15:44:35;;;;;;;14.80;1.53;;;;;;;;;;5033657;28;20455;-82
2024/03/31 15:47:04;;;;;;;13.67;2.00;;;;;;;;;;5041061;28;20457;-81
2024/03/31 15:49:31;;;;;;;19.50;1.97;;;;;;;;;;5042303;28;20473;-81
2024/03/31 15:51:58;;;;;;;13.10;1.70;;;;;;;;;;5040519;28;20516;-79
2024/03/31 15:54:26;;;;;;;11.60;1.50;;;;;;;;;;5044504;28;20463;-84
2024/03/31 15:56:52;;;;;;;13.90;2.03;;;;;;;;;;5032377;28;20896;-85
2024/03/31 15:59:22;;;;;;;15.30;1.70;;;;;;;;;;5041723;28;20571;-80
2024/03/31 16:01:48;;;;;;;13.93;1.70;;;;;;;;;;5040970;28;20468;-80
2024/03/31 16:04:15;;;;;;;16.70;1.90;;;;;;;;;;5042539;28;20451;-82
2024/03/31 16:06:41;;;;;;;10.90;1.40;;;;;;;;;;5039184;28;20480;-82
2024/03/31 16:09:10;;;;;;;12.20;1.70;;;;;;;;;;5043811;28;20511;-81
2024/03/31 16:11:36;;;;;;;15.50;2.33;;;;;;;;;;5038215;28;20530;-81
2024/03/31 16:14:03;;;;;;;14.80;2.63;;;;;;;;;;5044546;28;20449;-81
2024/03/31 16:16:32;;;;;;;11.37;1.50;;;;;;;;;;5038621;28;20445;-81
2024/03/31 16:18:59;;;;;;;12.40;2.13;;;;;;;;;;5039185;28;20484;-83
2024/03/31 16:21:25;;;;;;;15.50;2.47;;;;;;;;;;5038907;28;20820;-84
2024/03/31 16:23:52;;;;;;;12.37;1.93;;;;;;;;;;5039025;28;20460;-82
2024/03/31 16:26:20;;;;;;;13.60;1.87;;;;;;;;;;5034334;28;20505;-81
2024/03/31 16:28:47;;;;;;;18.80;2.40;;;;;;;;;;5033780;28;21089;-80
2024/03/31 16:31:13;;;;;;;12.53;2.10;;;;;;;;;;5032575;28;20544;-79